Time;durP1;ratioP1;P1;durP2;ratioP2;P2;SDS_P1;SDS_P2;PMS_P1;PMS_P2;Temp;Humidity;BMP_temperature;BMP_pressure;BME280_temperature;BME280_humidity;BME280_pressure;Samples;Min_cycle;Max_cycle;Signal;HPM_P1;HPM_P2
2021/08/12 00:01:09;;;;;;;1999.90;999.90;;;;;;;17.42;73.61;101668.31;15865958;28;20043;-57
2021/08/12 00:08:43;;;;;;;1999.90;999.90;;;;;;;17.39;73.68;101678.28;15866441;28;20105;-56
2021/08/12 00:16:15;;;;;;;1999.90;999.90;;;;;;;17.39;73.43;101660.53;15867167;28;20131;-59
2021/08/12 00:23:49;;;;;;;1999.90;999.90;;;;;;;17.28;73.51;101665.84;15849755;28;20047;-60
2021/08/12 00:31:36;;;;;;;1999.90;999.90;;;;;;;17.12;73.84;101656.50;15848344;28;20167;-58
2021/08/12 00:39:10;;;;;;;1999.90;999.90;;;;;;;17.07;73.91;101676.47;15848374;28;20066;-56
2021/08/12 00:46:43;;;;;;;1999.90;999.90;;;;;;;16.95;74.04;101688.59;15847696;28;20465;-58
2021/08/12 00:54:21;;;;;;;1999.90;999.90;;;;;;;16.89;73.70;101679.56;15865875;28;20036;-55
2021/08/12 01:01:57;;;;;;;1999.90;999.90;;;;;;;16.94;73.49;101668.03;15846958;28;20040;-55
2021/08/12 01:09:40;;;;;;;1999.90;999.90;;;;;;;16.89;73.71;101671.09;15846331;28;20115;-56
2021/08/12 01:17:18;;;;;;;1999.90;999.90;;;;;;;16.72;74.30;101671.31;15830990;28;20079;-57
2021/08/12 01:24:57;;;;;;;1999.90;999.90;;;;;;;16.67;74.17;101668.69;15847128;28;20130;-58
2021/08/12 01:32:40;;;;;;;1999.90;999.90;;;;;;;16.64;73.96;101660.94;15845247;28;20039;-54
2021/08/12 01:40:17;;;;;;;1999.90;999.90;;;;;;;16.58;73.98;101671.66;15862173;28;20551;-57
2021/08/12 01:47:51;;;;;;;1999.90;999.90;;;;;;;16.39;73.84;101671.38;15843508;28;20436;-56
2021/08/12 01:55:29;;;;;;;1999.90;999.90;;;;;;;16.41;74.21;101674.66;15843589;28;20491;-57
2021/08/12 02:03:04;;;;;;;1999.90;999.90;;;;;;;16.35;73.90;101665.59;15842303;28;20549;-56
2021/08/12 02:10:41;;;;;;;1999.90;999.90;;;;;;;16.22;74.27;101658.31;15841790;28;20135;-56
2021/08/12 02:18:13;;;;;;;1999.90;999.90;;;;;;;16.26;73.62;101662.09;15824201;28;20071;-57
2021/08/12 02:25:53;;;;;;;1999.90;999.90;;;;;;;16.25;74.02;101659.59;15853772;28;20341;-55
2021/08/12 02:33:28;;;;;;;1999.90;999.90;;;;;;;16.05;74.16;101658.53;15853417;28;20039;-56
2021/08/12 02:41:05;;;;;;;1999.90;999.90;;;;;;;16.02;74.38;101653.56;15853707;28;20047;-60
2021/08/12 02:48:38;;;;;;;1999.90;999.90;;;;;;;15.97;74.42;101662.25;15852440;28;20104;-55
2021/08/12 02:56:14;;;;;;;1999.90;999.90;;;;;;;16.02;74.17;101667.66;15835405;28;20097;-57
2021/08/12 03:03:49;;;;;;;1999.90;999.90;;;;;;;15.88;74.65;101660.34;15853579;28;20058;-57
2021/08/12 03:11:25;;;;;;;1999.90;999.90;;;;;;;15.74;75.49;101661.81;15853349;28;20058;-55
2021/08/12 03:18:58;;;;;;;1999.90;999.90;;;;;;;15.83;74.33;101660.53;15852406;28;20089;-59
2021/08/12 03:26:32;;;;;;;1999.90;999.90;;;;;;;15.78;74.45;101668.38;15870902;28;20097;-57
2021/08/12 03:34:04;;;;;;;1999.90;999.90;;;;;;;15.67;74.72;101673.63;15819227;22;20583;-58
2021/08/12 03:41:38;;;;;;;1999.90;999.90;;;;;;;15.72;74.41;101681.81;15786148;28;20101;-57
2021/08/12 03:49:11;;;;;;;1999.90;999.90;;;;;;;15.72;74.13;101690.28;15805252;28;20044;-58
2021/08/12 03:56:44;;;;;;;1999.90;999.90;;;;;;;15.65;74.70;101681.59;15787960;28;20056;-56
2021/08/12 04:04:17;;;;;;;1999.90;999.90;;;;;;;15.67;74.66;101684.03;15787038;28;20040;-59
2021/08/12 04:11:51;;;;;;;1999.90;999.90;;;;;;;15.78;74.54;101688.91;15786027;28;20449;-57
2021/08/12 04:19:25;;;;;;;1999.90;999.90;;;;;;;15.67;75.47;101703.75;15785406;28;20058;-57
2021/08/12 04:26:58;;;;;;;1999.90;999.90;;;;;;;15.90;75.10;101713.47;15731622;28;20442;-59
2021/08/12 04:34:31;;;;;;;1999.90;999.90;;;;;;;15.99;75.48;101708.56;15724894;28;20048;-59
2021/08/12 04:42:05;;;;;;;1999.90;999.90;;;;;;;16.32;74.71;101717.00;15739213;28;20098;-58
2021/08/12 04:49:38;;;;;;;1999.90;999.90;;;;;;;16.56;75.03;101719.03;15721504;28;20128;-57
2021/08/12 04:57:12;;;;;;;;;;;;;;;16.80;74.32;101723.94;15722090;28;20052;-56
2021/08/12 05:04:45;;;;;;;1999.90;999.90;;;;;;;16.52;76.81;101711.66;15721204;28;19964;-58
2021/08/12 05:12:23;;;;;;;1999.90;999.90;;;;;;;17.31;74.53;101713.13;15720383;28;20367;-57
2021/08/12 05:19:55;;;;;;;1999.90;999.90;;;;;;;17.51;74.29;101719.78;15725009;28;20039;-59
2021/08/12 05:27:29;;;;;;;1999.90;999.90;;;;;;;18.10;73.21;101728.41;15778616;28;20036;-56
2021/08/12 05:35:03;;;;;;;1999.90;999.90;;;;;;;18.47;73.07;101725.41;15782822;28;20044;-58
2021/08/12 05:42:37;;;;;;;1999.90;999.90;;;;;;;18.80;72.64;101730.75;15780114;28;20032;-58
2021/08/12 05:50:11;;;;;;;1999.90;999.90;;;;;;;19.51;70.72;101732.47;15782656;28;20560;-60
2021/08/12 05:57:45;;;;;;;1999.90;999.90;;;;;;;19.97;69.09;101731.88;15763956;28;20044;-59
2021/08/12 06:05:17;;;;;;;1999.90;999.90;;;;;;;20.40;66.64;101730.69;15764317;28;20036;-58
2021/08/12 06:12:51;;;;;;;1999.90;999.90;;;;;;;21.08;65.41;101744.09;15780711;28;20044;-60
2021/08/12 06:20:24;;;;;;;1999.90;999.90;;;;;;;21.31;64.16;101739.22;15780556;28;20068;-59
2021/08/12 06:28:01;;;;;;;1999.90;999.90;;;;;;;21.83;63.83;101751.75;15780268;28;20380;-57
2021/08/12 06:35:35;;;;;;;1999.90;999.90;;;;;;;22.52;61.71;101753.41;15779862;28;20500;-56
2021/08/12 06:43:09;;;;;;;1999.90;999.90;;;;;;;22.81;59.11;101763.03;15780025;28;20124;-59
2021/08/12 06:50:58;;;;;;;1999.90;999.90;;;;;;;23.43;58.12;101768.88;15779365;28;20136;-58
2021/08/12 06:58:32;;;;;;;1999.90;999.90;;;;;;;24.02;54.67;101767.63;15779216;28;20052;-58
2021/08/12 07:06:04;;;;;;;1999.90;999.90;;;;;;;24.44;53.39;101769.84;15782281;28;20078;-58
2021/08/12 07:13:38;;;;;;;1999.90;999.90;;;;;;;24.42;54.26;101774.34;15790422;28;20561;-57
2021/08/12 07:21:16;;;;;;;1999.90;999.90;;;;;;;24.97;52.92;101786.25;15783880;28;20040;-58
2021/08/12 07:28:55;;;;;;;1999.90;999.90;;;;;;;25.23;54.45;101772.84;15709901;28;20055;-56
2021/08/12 07:36:29;;;;;;;1999.90;999.90;;;;;;;24.96;51.16;101780.94;15744288;28;20051;-57
2021/08/12 07:44:05;;;;;;;1999.90;999.90;;;;;;;25.82;49.78;101785.41;15725943;28;20164;-58
2021/08/12 07:51:40;;;;;;;1999.90;999.90;;;;;;;25.89;49.87;101791.13;15745585;28;20378;-60
2021/08/12 07:59:13;;;;;;;1999.90;999.90;;;;;;;26.43;49.42;101770.88;15790153;28;20062;-60
2021/08/12 08:06:45;;;;;;;1999.90;999.90;;;;;;;26.11;48.13;101774.69;15784255;28;20044;-58
2021/08/12 08:14:19;;;;;;;1999.90;999.90;;;;;;;26.67;44.82;101764.19;15783950;28;20044;-60
2021/08/12 08:21:53;;;;;;;1999.90;999.90;;;;;;;28.05;44.74;101758.44;15771384;28;20048;-58
2021/08/12 08:29:26;;;;;;;1999.90;999.90;;;;;;;27.78;41.55;101766.13;15740460;28;20045;-60
2021/08/12 08:37:02;;;;;;;1999.90;999.90;;;;;;;27.88;42.01;101757.41;15740937;28;20044;-60
2021/08/12 08:44:39;;;;;;;1999.90;999.90;;;;;;;28.05;41.32;101767.03;15777349;28;20048;-61
2021/08/12 08:52:13;;;;;;;1999.90;999.90;;;;;;;28.55;41.56;101777.84;15802512;28;20097;-59
2021/08/12 08:59:47;;;;;;;1999.90;999.90;;;;;;;28.33;39.38;101767.94;15771767;28;20071;-62
2021/08/12 09:07:19;;;;;;;1999.90;999.90;;;;;;;28.52;38.69;101770.13;15825657;28;20076;-62
2021/08/12 09:15:02;;;;;;;1999.90;999.90;;;;;;;29.17;40.29;101767.06;15806982;28;20036;-61
2021/08/12 09:22:50;;;;;;;1999.90;999.90;;;;;;;29.35;38.35;101761.00;15823576;28;20472;-61
2021/08/12 09:30:26;;;;;;;1999.90;999.90;;;;;;;29.93;38.60;101764.47;15864189;28;20074;-57
2021/08/12 09:38:07;;;;;;;1999.90;999.90;;;;;;;29.39;35.27;101761.75;15861904;28;20059;-58
2021/08/12 09:45:41;;;;;;;1999.90;999.90;;;;;;;30.14;36.51;101761.97;15819883;28;20386;-59
2021/08/12 09:53:18;;;;;;;1999.90;999.90;;;;;;;30.33;37.06;101759.53;15797178;28;20044;-56
2021/08/12 10:00:52;;;;;;;1999.90;999.90;;;;;;;30.79;35.24;101758.47;15796913;28;20036;-58
2021/08/12 10:08:29;;;;;;;1999.90;999.90;;;;;;;30.78;34.82;101753.97;15779426;28;20044;-57
2021/08/12 10:16:02;;;;;;;1999.90;999.90;;;;;;;30.51;33.77;101756.22;15779077;28;20040;-53
2021/08/12 10:23:39;;;;;;;1999.90;999.90;;;;;;;31.28;34.78;101756.41;15771466;28;20494;-58
2021/08/12 10:31:20;;;;;;;1999.90;999.90;;;;;;;32.09;31.51;101754.59;15734351;28;20045;-55
2021/08/12 10:38:54;;;;;;;1999.90;999.90;;;;;;;32.74;31.76;101746.38;15801825;28;20048;-54
2021/08/12 10:46:36;;;;;;;1999.90;999.90;;;;;;;33.18;30.21;101731.31;15772911;28;20055;-57
2021/08/12 10:54:18;;;;;;;1999.90;999.90;;;;;;;31.73;30.80;101726.75;15778481;28;20035;-58
2021/08/12 11:01:53;;;;;;;1999.90;999.90;;;;;;;33.83;32.97;101730.63;15865562;28;20046;-58
2021/08/12 11:17:13;;;;;;;1999.90;999.90;;;;;;;33.30;31.77;101719.69;15798503;28;20462;-59
2021/08/12 11:24:51;;;;;;;1999.90;999.90;;;;;;;34.30;27.45;101718.91;15772579;28;20412;-58
2021/08/12 11:32:25;;;;;;;1999.90;999.90;;;;;;;33.86;28.08;101695.75;15730583;28;20041;-58
2021/08/12 11:39:58;;;;;;;1999.90;999.90;;;;;;;35.09;27.67;101698.28;15729615;28;20040;-59
2021/08/12 11:47:32;;;;;;;1999.90;999.90;;;;;;;33.99;28.76;101692.81;15727869;28;20049;-57
2021/08/12 11:55:09;;;;;;;1999.90;999.90;;;;;;;34.86;29.59;101694.66;15744531;28;20470;-57
2021/08/12 12:02:58;;;;;;;1999.90;999.90;;;;;;;35.54;27.60;101704.16;15749677;28;20090;-58
2021/08/12 12:10:32;;;;;;;1999.90;999.90;;;;;;;35.41;28.38;101686.06;15733789;28;20154;-58
2021/08/12 12:18:06;;;;;;;1999.90;999.90;;;;;;;33.91;27.77;101688.56;15732761;28;20510;-59
2021/08/12 12:25:51;;;;;;;1999.90;999.90;;;;;;;33.88;27.67;101682.94;15770235;28;20032;-57
2021/08/12 12:33:27;;;;;;;1999.90;999.90;;;;;;;34.42;26.87;101677.44;15804938;28;20043;-57
2021/08/12 12:41:08;;;;;;;1999.90;999.90;;;;;;;35.61;25.45;101682.69;15785472;28;20077;-58
2021/08/12 12:48:50;;;;;;;1999.90;999.90;;;;;;;36.73;25.32;101682.69;15757631;28;20044;-53
2021/08/12 12:56:25;;;;;;;1999.90;999.90;;;;;;;35.06;25.96;101676.03;15777457;28;20048;-58
2021/08/12 13:04:00;;;;;;;1999.90;999.90;;;;;;;39.59;22.42;101679.81;15787313;28;20511;-58
2021/08/12 13:11:34;;;;;;;1999.90;999.90;;;;;;;40.68;20.15;101681.88;15785809;28;20066;-59
2021/08/12 13:19:19;;;;;;;1999.90;999.90;;;;;;;42.93;20.03;101673.00;15799110;28;20048;-59
2021/08/12 13:26:58;;;;;;;1999.90;999.90;;;;;;;39.28;22.50;101660.03;15799568;28;20048;-58
2021/08/12 13:34:32;;;;;;;1999.90;999.90;;;;;;;36.13;26.70;101648.72;15781824;28;20093;-58
2021/08/12 13:42:26;;;;;;;1999.90;999.90;;;;;;;35.76;26.86;101642.19;15781434;28;20396;-58
2021/08/12 13:50:03;;;;;;;1999.90;999.90;;;;;;;33.46;29.10;101626.19;15763441;28;20051;-55
2021/08/12 13:57:35;;;;;;;1999.90;999.90;;;;;;;32.36;30.06;101613.50;15740716;28;20037;-54
2021/08/12 14:05:09;;;;;;;1999.90;999.90;;;;;;;31.60;29.38;101614.22;15735457;28;20447;-57
2021/08/12 14:20:29;;;;;;;1999.90;999.90;;;;;;;30.78;31.90;101604.16;15753501;28;20083;-56
2021/08/12 14:28:01;;;;;;;1999.90;999.90;;;;;;;30.22;32.42;101584.16;15737411;28;20076;-54
2021/08/12 14:35:35;;;;;;;1999.90;999.90;;;;;;;30.64;31.74;101590.09;15755929;28;20036;-54
2021/08/12 14:43:10;;;;;;;1999.90;999.90;;;;;;;30.49;32.17;101588.84;15754871;28;20044;-58
2021/08/12 14:50:59;;;;;;;1999.90;999.90;;;;;;;30.00;31.98;101583.00;15755023;28;20068;-57
2021/08/12 14:58:31;;;;;;;1999.90;999.90;;;;;;;30.37;32.31;101567.34;15817614;28;20104;-58
2021/08/12 15:06:05;;;;;;;1999.90;999.90;;;;;;;30.48;33.01;101561.31;15817558;28;20465;-54
2021/08/12 15:13:47;;;;;;;1999.90;999.90;;;;;;;30.49;32.92;101548.53;15819317;28;20131;-56
2021/08/12 15:21:21;;;;;;;1999.90;999.90;;;;;;;29.55;32.79;101552.00;15794428;28;20040;-63
2021/08/12 15:28:54;;;;;;;1999.90;999.90;;;;;;;29.74;33.45;101545.41;15809067;28;20040;-59
2021/08/12 15:36:27;;;;;;;1999.90;999.90;;;;;;;29.99;33.31;101546.88;15805807;28;20047;-59
2021/08/12 15:44:00;;;;;;;1999.90;999.90;;;;;;;29.55;33.07;101540.50;15807232;28;20051;-60
2021/08/12 15:51:33;;;;;;;1999.90;999.90;;;;;;;29.82;32.67;101531.66;15801698;28;20044;-53
2021/08/12 15:59:06;;;;;;;1999.90;999.90;;;;;;;29.87;32.67;101534.81;15788847;28;20465;-62
2021/08/12 16:06:48;;;;;;;1999.90;999.90;;;;;;;30.02;35.65;101540.25;15769321;28;20055;-57
2021/08/12 16:14:26;;;;;;;1999.90;999.90;;;;;;;29.80;33.20;101532.09;15783478;28;20323;-55
2021/08/12 16:31:01;;;;;;;1999.90;999.90;;;;;;;29.81;34.27;101519.34;15803703;28;20041;-58
2021/08/12 16:38:50;;;;;;;1999.90;999.90;;;;;;;29.92;34.44;101532.69;15785040;28;20535;-56
2021/08/12 16:46:41;;;;;;;1999.90;999.90;;;;;;;29.66;32.57;101528.75;15802138;28;20043;-56
2021/08/12 16:54:34;;;;;;;1999.90;999.90;;;;;;;29.15;33.10;101526.13;15801193;28;20055;-56
2021/08/12 17:02:09;;;;;;;1999.90;999.90;;;;;;;29.28;33.64;101517.63;15801314;28;20036;-58
2021/08/12 17:09:48;;;;;;;1999.90;999.90;;;;;;;29.37;36.72;101528.53;15766445;28;20067;-58
2021/08/12 17:17:30;;;;;;;1999.90;999.90;;;;;;;28.84;37.33;101519.75;15802133;28;20063;-59
2021/08/12 17:25:14;;;;;;;1999.90;999.90;;;;;;;28.56;42.09;101515.38;15783946;28;20037;-58
2021/08/12 17:32:46;;;;;;;1999.90;999.90;;;;;;;28.01;40.92;101510.97;15799474;28;20476;-55
2021/08/12 17:40:23;;;;;;;1999.90;999.90;;;;;;;27.79;40.63;101498.22;15799105;28;20044;-55
2021/08/12 17:47:56;;;;;;;1999.90;999.90;;;;;;;28.03;40.44;101510.50;15781163;28;20518;-55
2021/08/12 17:55:32;;;;;;;1999.90;999.90;;;;;;;27.81;44.17;101505.13;15741310;28;20171;-54
2021/08/12 18:03:08;;;;;;;1999.90;999.90;;;;;;;27.63;43.35;101504.56;15717931;28;20052;-54
2021/08/12 18:10:45;;;;;;;1999.90;999.90;;;;;;;27.48;44.99;101495.34;15735295;28;20044;-55
2021/08/12 18:18:17;;;;;;;1999.90;999.90;;;;;;;26.96;44.71;101495.59;15716159;28;20490;-55
2021/08/12 18:25:56;;;;;;;1999.90;999.90;;;;;;;26.64;46.38;101495.16;15734375;28;20472;-56
2021/08/12 18:33:29;;;;;;;1999.90;999.90;;;;;;;26.14;45.38;101502.13;15715072;28;20171;-57
2021/08/12 18:41:02;;;;;;;1999.90;999.90;;;;;;;26.16;47.64;101510.31;15734499;28;20051;-59
2021/08/12 18:48:34;;;;;;;1999.90;999.90;;;;;;;25.75;50.57;101515.94;15734508;28;20147;-57
2021/08/12 18:56:09;;;;;;;1999.90;999.90;;;;;;;25.36;52.44;101513.28;15779315;28;20153;-58
2021/08/12 19:03:41;;;;;;;1999.90;999.90;;;;;;;24.96;53.27;101515.44;15802903;28;20051;-55
2021/08/12 19:11:17;;;;;;;1999.90;999.90;;;;;;;24.64;54.57;101516.34;15789413;28;20531;-56
2021/08/12 19:18:52;;;;;;;1999.90;999.90;;;;;;;24.37;55.15;101515.16;15789156;28;20407;-56
2021/08/12 19:26:26;;;;;;;1999.90;999.90;;;;;;;24.07;55.86;101524.09;15806397;28;20048;-57
2021/08/12 19:34:01;;;;;;;1999.90;999.90;;;;;;;23.83;57.26;101525.69;15805563;28;20485;-57
2021/08/12 19:41:37;;;;;;;1999.90;999.90;;;;;;;23.61;58.14;101522.00;15787044;28;20046;-58
2021/08/12 19:49:13;;;;;;;1999.90;999.90;;;;;;;23.53;61.41;101512.56;15787452;28;20538;-59
2021/08/12 19:56:56;;;;;;;1999.90;999.90;;;;;;;23.38;57.78;101519.47;15754517;28;20094;-57
2021/08/12 20:04:35;;;;;;;1999.90;999.90;;;;;;;23.21;59.47;101525.88;15743164;28;20076;-59
2021/08/12 20:12:14;;;;;;;1999.90;999.90;;;;;;;23.02;60.13;101521.31;15740844;28;20040;-59
2021/08/12 20:20:00;;;;;;;1999.90;999.90;;;;;;;22.79;60.49;101529.31;15723394;28;20059;-58
2021/08/12 20:27:50;;;;;;;1999.90;999.90;;;;;;;22.72;61.11;101528.06;15721347;28;20137;-58
2021/08/12 20:35:31;;;;;;;1999.90;999.90;;;;;;;22.37;55.50;101520.09;15739487;28;20040;-60
2021/08/12 20:43:29;;;;;;;1999.90;999.90;;;;;;;22.77;56.10;101522.00;15738768;28;20455;-60
2021/08/12 20:51:09;;;;;;;1999.90;999.90;;;;;;;22.77;58.14;101519.16;15740225;28;20048;-58
2021/08/12 20:58:48;;;;;;;1999.90;999.90;;;;;;;22.68;58.41;101532.09;15782161;28;20051;-57
2021/08/12 21:06:29;;;;;;;1999.90;999.90;;;;;;;22.42;58.89;101533.13;15800537;28;20127;-55
2021/08/12 21:14:10;;;;;;;1999.90;999.90;;;;;;;22.10;60.97;101539.38;15782460;28;20097;-56
2021/08/12 21:21:54;;;;;;;1999.90;999.90;;;;;;;21.96;61.79;101536.34;15781820;28;20569;-59
2021/08/12 21:29:31;;;;;;;1999.90;999.90;;;;;;;21.82;62.59;101539.88;15820652;22;20051;-65
2021/08/12 21:37:04;;;;;;;1999.90;999.90;;;;;;;21.65;62.37;101531.97;15778626;28;20463;-67
2021/08/12 21:44:43;;;;;;;1999.90;999.90;;;;;;;21.54;62.77;101528.22;15730362;28;20106;-64
2021/08/12 21:52:19;;;;;;;1999.90;999.90;;;;;;;21.53;63.21;101537.94;15752678;28;20400;-66
2021/08/12 21:59:52;;;;;;;1999.90;999.90;;;;;;;21.44;63.65;101531.75;15805913;28;20464;-66
2021/08/12 22:07:39;;;;;;;1999.90;999.90;;;;;;;21.32;63.87;101538.50;15787392;28;20052;-66
2021/08/12 22:15:25;;;;;;;1999.90;999.90;;;;;;;21.17;64.35;101545.19;15776351;28;20044;-66
2021/08/12 22:22:59;;;;;;;1999.90;999.90;;;;;;;21.09;65.00;101555.63;15807078;28;20067;-66
2021/08/12 22:30:36;;;;;;;1999.90;999.90;;;;;;;21.00;65.14;101557.91;15806038;28;20060;-67
2021/08/12 22:38:08;;;;;;;1999.90;999.90;;;;;;;20.89;64.51;101554.94;15793634;28;20048;-66
2021/08/12 22:45:42;;;;;;;1999.90;999.90;;;;;;;20.71;63.78;101557.50;15818250;28;20129;-65
2021/08/12 22:53:14;;;;;;;1999.90;999.90;;;;;;;20.54;65.24;101551.59;15796864;28;20397;-66
2021/08/12 23:00:48;;;;;;;1999.90;999.90;;;;;;;20.51;65.19;101544.63;15757583;28;20501;-66
2021/08/12 23:08:20;;;;;;;1999.90;999.90;;;;;;;20.35;65.91;101546.78;15731584;28;20051;-66
2021/08/12 23:15:53;;;;;;;1999.90;999.90;;;;;;;20.36;65.95;101534.25;15745386;28;20054;-67
2021/08/12 23:23:25;;;;;;;1999.90;999.90;;;;;;;20.28;65.61;101533.31;15780735;28;20471;-67
2021/08/12 23:30:59;;;;;;;1999.90;999.90;;;;;;;20.24;65.99;101528.78;15775500;28;20055;-66
2021/08/12 23:38:31;;;;;;;1999.90;999.90;;;;;;;20.25;66.48;101541.75;15775266;28;20036;-67
2021/08/12 23:46:04;;;;;;;1999.90;999.90;;;;;;;20.19;66.81;101538.41;15753092;28;20052;-66
2021/08/12 23:53:37;;;;;;;1999.90;999.90;;;;;;;20.27;66.06;101528.03;15744619;28;20043;-64
